createdAt,value
2018-09-15T00:00:57.359Z,14.97
2018-09-15T00:03:26.036Z,14.73
2018-09-15T00:05:54.487Z,14.77
2018-09-15T00:08:22.686Z,15.63
2018-09-15T00:10:50.876Z,15.00
2018-09-15T00:13:20.069Z,14.60
2018-09-15T00:15:48.308Z,15.37
2018-09-15T00:18:17.457Z,15.10
2018-09-15T00:20:45.664Z,14.83
2018-09-15T00:23:13.950Z,14.10
2018-09-15T00:25:42.673Z,14.97
2018-09-15T00:28:11.772Z,15.23
2018-09-15T00:30:40.251Z,14.43
2018-09-15T00:33:08.447Z,14.60
2018-09-15T00:35:36.640Z,15.00
2018-09-15T00:38:04.844Z,15.63
2018-09-15T00:40:33.056Z,15.53
2018-09-15T00:43:01.306Z,15.07
2018-09-15T00:45:29.508Z,14.87
2018-09-15T00:47:57.716Z,14.97
2018-09-15T00:50:25.947Z,14.80
2018-09-15T00:52:54.147Z,16.00
2018-09-15T00:55:22.350Z,15.20
2018-09-15T00:57:50.551Z,16.63
2018-09-15T01:00:19.986Z,15.50
2018-09-15T01:02:48.183Z,14.20
2018-09-15T01:05:16.366Z,14.87
2018-09-15T01:07:44.587Z,14.40
2018-09-15T01:10:12.754Z,14.77
2018-09-15T01:12:40.985Z,15.80
2018-09-15T01:15:09.173Z,15.40
2018-09-15T01:17:37.359Z,17.13
2018-09-15T01:20:05.623Z,15.73
2018-09-15T01:22:33.736Z,16.00
2018-09-15T01:25:01.931Z,17.40
2018-09-15T01:27:30.107Z,16.57
2018-09-15T01:29:58.658Z,16.10
2018-09-15T01:32:27.973Z,15.50
2018-09-15T01:34:56.450Z,14.60
2018-09-15T01:37:24.836Z,14.30
2018-09-15T01:39:53.059Z,14.60
2018-09-15T01:42:21.242Z,13.30
2018-09-15T01:44:49.550Z,13.10
2018-09-15T01:47:17.748Z,13.00
2018-09-15T01:49:45.944Z,13.40
2018-09-15T01:52:14.170Z,13.13
2018-09-15T01:54:42.354Z,13.47
2018-09-15T01:57:10.576Z,12.33
2018-09-15T01:59:38.891Z,12.63
2018-09-15T02:02:07.090Z,12.27
2018-09-15T02:04:35.267Z,12.13
2018-09-15T02:07:03.456Z,12.07
2018-09-15T02:09:31.668Z,13.70
2018-09-15T02:11:59.863Z,12.70
2018-09-15T02:14:28.047Z,13.23
2018-09-15T02:16:56.227Z,13.37
2018-09-15T02:19:24.419Z,13.83
2018-09-15T02:21:52.658Z,13.20
2018-09-15T02:24:20.861Z,13.07
2018-09-15T02:26:49.038Z,13.30
2018-09-15T02:29:17.247Z,13.03
2018-09-15T02:31:45.435Z,13.10
2018-09-15T02:34:13.607Z,13.37
2018-09-15T02:36:41.806Z,13.00
2018-09-15T02:39:10.435Z,13.57
2018-09-15T02:41:38.623Z,12.73
2018-09-15T02:44:06.978Z,13.50
2018-09-15T02:46:35.168Z,13.70
2018-09-15T02:49:03.363Z,14.27
2018-09-15T02:51:31.543Z,13.23
2018-09-15T02:53:59.711Z,13.03
2018-09-15T02:56:27.908Z,14.47
2018-09-15T02:58:56.123Z,14.40
2018-09-15T03:01:24.299Z,12.97
2018-09-15T03:03:52.502Z,12.47
2018-09-15T03:06:20.698Z,13.30
2018-09-15T03:08:48.883Z,13.10
2018-09-15T03:11:17.063Z,14.00
2018-09-15T03:13:45.231Z,14.20
2018-09-15T03:16:13.417Z,13.23
2018-09-15T03:18:41.641Z,13.03
2018-09-15T03:21:09.831Z,13.37
2018-09-15T03:23:38.006Z,13.43
2018-09-15T03:26:06.237Z,13.47
2018-09-15T03:28:34.420Z,12.80
2018-09-15T03:31:02.610Z,13.30
2018-09-15T03:33:30.778Z,12.83
2018-09-15T03:35:58.979Z,13.27
2018-09-15T03:38:27.164Z,12.23
2018-09-15T03:40:55.343Z,12.83
2018-09-15T03:43:23.527Z,13.60
2018-09-15T03:45:51.699Z,13.10
2018-09-15T03:48:19.889Z,12.87
2018-09-15T03:50:48.054Z,12.37
2018-09-15T03:53:16.264Z,13.27
2018-09-15T03:55:44.438Z,13.27
2018-09-15T03:58:12.640Z,13.30
2018-09-15T04:00:40.836Z,13.43
2018-09-15T04:03:09.038Z,12.40
2018-09-15T04:05:37.231Z,12.80
2018-09-15T04:08:05.403Z,13.17
2018-09-15T04:10:33.591Z,13.43
2018-09-15T04:13:01.772Z,12.60
2018-09-15T04:15:29.975Z,13.10
2018-09-15T04:17:58.159Z,12.83
2018-09-15T04:20:26.351Z,13.33
2018-09-15T04:22:54.530Z,12.43
2018-09-15T04:25:22.729Z,13.20
2018-09-15T04:27:50.910Z,12.20
2018-09-15T04:30:19.106Z,13.20
2018-09-15T04:32:47.299Z,12.70
2018-09-15T04:35:15.484Z,13.33
2018-09-15T04:37:43.657Z,12.50
2018-09-15T04:40:11.851Z,12.83
2018-09-15T04:42:40.052Z,12.30
2018-09-15T04:45:08.301Z,13.60
2018-09-15T04:47:36.492Z,13.00
2018-09-15T04:50:05.011Z,13.17
2018-09-15T04:52:33.252Z,12.57
2018-09-15T04:55:01.406Z,13.30
2018-09-15T04:57:30.110Z,12.60
2018-09-15T04:59:58.323Z,13.30
2018-09-15T05:02:26.716Z,13.13
2018-09-15T05:04:54.920Z,13.00
2018-09-15T05:07:23.183Z,12.30
2018-09-15T05:09:51.344Z,12.47
2018-09-15T05:12:19.675Z,12.80
2018-09-15T05:14:47.839Z,12.20
2018-09-15T05:17:16.017Z,11.70
2018-09-15T05:19:44.250Z,11.93
2018-09-15T05:22:12.434Z,11.47
2018-09-15T05:24:40.636Z,12.10
2018-09-15T05:27:08.828Z,13.37
2018-09-15T05:29:37.024Z,12.80
2018-09-15T05:32:05.221Z,13.23
2018-09-15T05:34:33.462Z,12.07
2018-09-15T05:37:01.654Z,11.43
2018-09-15T05:39:29.834Z,11.40
2018-09-15T05:41:58.018Z,11.63
2018-09-15T05:44:26.207Z,12.30
2018-09-15T05:46:54.386Z,11.67
2018-09-15T05:49:22.559Z,11.23
2018-09-15T05:51:50.739Z,11.30
2018-09-15T05:54:18.914Z,11.60
2018-09-15T05:56:47.099Z,10.70
2018-09-15T05:59:15.287Z,11.67
2018-09-15T06:01:43.555Z,11.10
2018-09-15T06:04:11.643Z,10.90
2018-09-15T06:06:39.828Z,11.17
2018-09-15T06:09:09.611Z,11.67
2018-09-15T06:11:37.988Z,10.37
2018-09-15T06:14:06.209Z,10.23
2018-09-15T06:16:34.417Z,12.43
2018-09-15T06:19:02.603Z,10.43
2018-09-15T06:21:30.788Z,11.17
2018-09-15T06:23:58.971Z,10.90
2018-09-15T06:26:27.156Z,10.67
2018-09-15T06:28:55.344Z,12.63
2018-09-15T06:31:23.544Z,11.57
2018-09-15T06:33:51.868Z,12.17
2018-09-15T06:36:20.287Z,11.23
2018-09-15T06:38:48.410Z,11.60
2018-09-15T06:41:16.692Z,15.00
2018-09-15T06:43:44.903Z,10.87
2018-09-15T06:46:13.155Z,11.47
2018-09-15T06:48:41.371Z,11.53
2018-09-15T06:51:10.340Z,11.93
2018-09-15T06:53:38.584Z,11.87
2018-09-15T06:56:06.845Z,12.00
2018-09-15T06:58:35.047Z,13.27
2018-09-15T07:01:04.510Z,12.73
2018-09-15T07:03:32.682Z,13.03
2018-09-15T07:06:00.870Z,12.10
2018-09-15T07:08:29.079Z,12.33
2018-09-15T07:10:57.275Z,12.13
2018-09-15T07:13:25.475Z,11.90
2018-09-15T07:15:53.658Z,11.60
2018-09-15T07:18:22.016Z,13.17
2018-09-15T07:20:50.248Z,12.73
2018-09-15T07:23:18.432Z,12.33
2018-09-15T07:25:46.671Z,13.73
2018-09-15T07:28:14.827Z,12.70
2018-09-15T07:30:43.003Z,12.97
2018-09-15T07:33:11.316Z,12.63
2018-09-15T07:35:39.541Z,12.10
2018-09-15T07:38:07.707Z,11.70
2018-09-15T07:40:36.049Z,11.30
2018-09-15T07:43:04.226Z,12.10
2018-09-15T07:45:32.402Z,11.43
2018-09-15T07:48:00.588Z,12.63
2018-09-15T07:50:28.784Z,12.80
2018-09-15T07:52:56.980Z,13.23
2018-09-15T07:55:25.200Z,12.50
2018-09-15T07:57:53.690Z,13.67
2018-09-15T08:00:21.664Z,11.77
2018-09-15T08:02:49.859Z,11.27
2018-09-15T08:05:18.050Z,11.70
2018-09-15T08:07:46.252Z,11.40
2018-09-15T08:10:14.451Z,12.00
2018-09-15T08:12:42.634Z,14.60
2018-09-15T08:15:10.816Z,12.43
2018-09-15T08:17:39.105Z,11.43
2018-09-15T08:20:07.316Z,11.23
2018-09-15T08:22:35.639Z,11.37
2018-09-15T08:25:03.831Z,12.63
2018-09-15T08:27:32.023Z,10.80
2018-09-15T08:30:00.323Z,11.80
2018-09-15T08:32:28.520Z,12.97
2018-09-15T08:34:56.700Z,12.70
2018-09-15T08:37:24.872Z,15.27
2018-09-15T08:39:53.051Z,12.27
2018-09-15T08:42:21.214Z,13.53
2018-09-15T08:44:49.483Z,11.70
2018-09-15T08:47:17.730Z,11.87
2018-09-15T08:49:45.919Z,11.50
2018-09-15T08:52:14.140Z,16.77
2018-09-15T08:54:42.385Z,12.43
2018-09-15T08:57:10.555Z,11.60
2018-09-15T08:59:38.799Z,12.07
2018-09-15T09:02:11.146Z,12.27
2018-09-15T09:04:39.360Z,15.17
2018-09-15T09:07:07.543Z,14.97
2018-09-15T09:09:35.698Z,13.70
2018-09-15T09:12:03.946Z,14.87
2018-09-15T09:14:32.360Z,12.60
2018-09-15T09:17:00.775Z,15.70
2018-09-15T09:19:29.051Z,13.23
2018-09-15T09:21:58.178Z,18.57
2018-09-15T09:24:26.486Z,12.83
2018-09-15T09:26:54.749Z,13.27
2018-09-15T09:29:22.965Z,13.30
2018-09-15T09:31:51.559Z,13.47
2018-09-15T09:34:19.741Z,16.63
2018-09-15T09:36:48.005Z,15.17
2018-09-15T09:39:16.195Z,12.37
2018-09-15T09:41:45.557Z,16.13
2018-09-15T09:44:14.700Z,11.63
2018-09-15T09:46:43.039Z,11.13
2018-09-15T09:49:11.259Z,12.20
2018-09-15T09:51:39.424Z,11.87
2018-09-15T09:54:07.807Z,12.83
2018-09-15T09:56:36.014Z,12.57
2018-09-15T09:59:04.981Z,11.03
2018-09-15T10:01:38.338Z,11.67
2018-09-15T10:04:06.765Z,12.27
2018-09-15T10:06:34.963Z,13.03
2018-09-15T10:09:03.271Z,10.90
2018-09-15T10:11:31.452Z,12.13
2018-09-15T10:14:00.215Z,11.77
2018-09-15T10:16:28.399Z,11.40
2018-09-15T10:18:56.668Z,13.45
2018-09-15T10:21:24.948Z,11.13
2018-09-15T10:23:53.111Z,11.73
2018-09-15T10:26:21.368Z,12.90
2018-09-15T10:28:49.546Z,14.13
2018-09-15T10:31:17.735Z,13.10
2018-09-15T10:33:46.075Z,10.53
2018-09-15T10:36:14.241Z,10.87
2018-09-15T10:38:42.452Z,10.50
2018-09-15T10:41:10.635Z,12.93
2018-09-15T10:43:38.835Z,11.63
2018-09-15T10:46:07.006Z,9.93
2018-09-15T10:48:35.323Z,15.27
2018-09-15T10:51:04.023Z,9.70
2018-09-15T10:53:32.212Z,10.20
2018-09-15T10:56:00.417Z,10.50
2018-09-15T10:58:28.626Z,9.30
2018-09-15T11:00:56.875Z,10.40
2018-09-15T11:03:25.098Z,9.77
2018-09-15T11:05:53.364Z,11.47
2018-09-15T11:08:21.476Z,13.43
2018-09-15T11:10:49.648Z,11.10
2018-09-15T11:13:17.908Z,11.07
2018-09-15T11:15:46.069Z,10.33
2018-09-15T11:18:14.239Z,10.23
2018-09-15T11:20:42.480Z,10.30
2018-09-15T11:23:10.774Z,9.50
2018-09-15T11:25:38.983Z,10.43
2018-09-15T11:28:08.477Z,12.60
2018-09-15T11:30:37.798Z,10.80
2018-09-15T11:33:06.028Z,9.63
2018-09-15T11:35:34.228Z,10.47
2018-09-15T11:38:02.426Z,10.40
2018-09-15T11:40:30.611Z,10.23
2018-09-15T11:42:58.807Z,9.20
2018-09-15T11:45:26.983Z,10.40
2018-09-15T11:47:55.255Z,10.17
2018-09-15T11:50:26.386Z,10.23
2018-09-15T11:52:54.573Z,9.87
2018-09-15T11:55:22.778Z,10.37
2018-09-15T11:57:51.028Z,9.93
2018-09-15T12:00:23.603Z,10.07
2018-09-15T12:02:51.795Z,9.83
2018-09-15T12:05:19.987Z,9.90
2018-09-15T12:07:48.256Z,10.57
2018-09-15T12:10:16.388Z,9.63
2018-09-15T12:12:44.578Z,9.10
2018-09-15T12:15:12.776Z,9.70
2018-09-15T12:17:40.968Z,10.07
2018-09-15T12:20:09.187Z,11.60
2018-09-15T12:22:37.562Z,10.00
2018-09-15T12:25:05.806Z,10.03
2018-09-15T12:27:34.048Z,10.83
2018-09-15T12:30:02.245Z,10.87
2018-09-15T12:32:30.435Z,10.87
2018-09-15T12:34:58.623Z,9.13
2018-09-15T12:37:26.807Z,9.70
2018-09-15T12:39:55.000Z,9.77
2018-09-15T12:42:23.285Z,9.20
2018-09-15T12:44:51.482Z,9.60
2018-09-15T12:47:19.651Z,10.10
2018-09-15T12:49:47.831Z,9.60
2018-09-15T12:52:16.326Z,9.10
2018-09-15T12:54:44.455Z,8.77
2018-09-15T12:57:12.630Z,9.67
2018-09-15T12:59:40.811Z,9.53
2018-09-15T13:02:08.999Z,10.00
2018-09-15T13:04:37.379Z,8.83
2018-09-15T13:07:05.884Z,9.63
2018-09-15T13:09:34.115Z,9.97
2018-09-15T13:12:02.362Z,9.33
2018-09-15T13:14:30.551Z,8.70
2018-09-15T13:16:59.986Z,8.70
2018-09-15T13:19:28.163Z,8.57
2018-09-15T13:21:57.347Z,9.03
2018-09-15T13:24:25.610Z,8.90
2018-09-15T13:26:53.929Z,9.00
2018-09-15T13:29:23.154Z,8.70
2018-09-15T13:31:51.491Z,9.30
2018-09-15T13:34:19.739Z,9.07
2018-09-15T13:36:47.939Z,9.03
2018-09-15T13:39:16.151Z,8.40
2018-09-15T13:41:44.372Z,8.80
2018-09-15T13:44:12.615Z,9.23
2018-09-15T13:46:40.882Z,7.80
2018-09-15T13:49:09.115Z,8.40
2018-09-15T13:51:37.906Z,8.17
2018-09-15T13:54:06.186Z,8.67
2018-09-15T13:56:34.408Z,8.60
2018-09-15T13:59:02.653Z,8.40
2018-09-15T14:01:30.928Z,9.00
2018-09-15T14:03:59.389Z,9.73
2018-09-15T14:06:27.811Z,8.80
2018-09-15T14:08:56.039Z,8.93
2018-09-15T14:11:25.344Z,8.90
2018-09-15T14:13:53.562Z,8.00
2018-09-15T14:16:21.862Z,8.33
2018-09-15T14:18:50.074Z,7.87
2018-09-15T14:21:18.359Z,8.47
2018-09-15T14:23:46.593Z,9.30
2018-09-15T14:26:14.831Z,8.57
2018-09-15T14:28:43.003Z,8.30
2018-09-15T14:31:11.233Z,8.80
2018-09-15T14:33:39.447Z,8.37
2018-09-15T14:36:07.639Z,8.33
2018-09-15T14:38:35.882Z,8.30
2018-09-15T14:41:04.012Z,7.80
2018-09-15T14:43:32.183Z,8.17
2018-09-15T14:46:00.342Z,9.03
2018-09-15T14:48:28.612Z,8.60
2018-09-15T14:50:56.690Z,8.10
2018-09-15T14:53:24.883Z,8.50
2018-09-15T14:55:53.068Z,8.00
2018-09-15T14:58:21.268Z,8.40
2018-09-15T15:00:49.526Z,8.10
2018-09-15T15:03:17.694Z,7.80
2018-09-15T15:05:45.871Z,8.50
2018-09-15T15:08:14.056Z,7.97
2018-09-15T15:10:42.247Z,7.80
2018-09-15T15:13:10.413Z,8.03
2018-09-15T15:15:38.590Z,7.33
2018-09-15T15:18:06.759Z,8.30
2018-09-15T15:20:34.939Z,7.80
2018-09-15T15:23:03.135Z,7.93
2018-09-15T15:25:31.414Z,8.07
2018-09-15T15:27:59.536Z,7.93
2018-09-15T15:30:28.558Z,7.30
2018-09-15T15:32:56.815Z,8.27
2018-09-15T15:35:25.048Z,8.00
2018-09-15T15:37:53.324Z,7.93
2018-09-15T15:40:21.523Z,7.57
2018-09-15T15:42:49.807Z,8.27
2018-09-15T15:45:18.052Z,8.97
2018-09-15T15:47:46.263Z,9.30
2018-09-15T15:50:14.455Z,10.07
2018-09-15T15:52:42.644Z,10.43
2018-09-15T15:55:10.849Z,11.27
2018-09-15T15:57:39.011Z,9.60
2018-09-15T16:00:07.423Z,9.90
2018-09-15T16:02:35.711Z,9.97
2018-09-15T16:05:04.383Z,10.10
2018-09-15T16:07:32.611Z,10.50
2018-09-15T16:10:00.734Z,8.77
2018-09-15T16:12:29.574Z,9.47
2018-09-15T16:14:57.743Z,8.80
2018-09-15T16:17:25.911Z,9.10
2018-09-15T16:19:54.094Z,9.60
2018-09-15T16:22:22.642Z,10.00
2018-09-15T16:24:51.122Z,9.37
2018-09-15T16:27:19.508Z,8.73
2018-09-15T16:29:47.781Z,9.90
2018-09-15T16:32:16.688Z,10.30
2018-09-15T16:34:44.887Z,9.20
2018-09-15T16:37:13.152Z,9.40
2018-09-15T16:39:41.370Z,8.27
2018-09-15T16:42:09.560Z,8.57
2018-09-15T16:44:37.732Z,8.97
2018-09-15T16:47:05.897Z,9.10
2018-09-15T16:49:34.084Z,10.13
2018-09-15T16:52:02.270Z,9.57
2018-09-15T16:54:30.455Z,9.33
2018-09-15T16:56:58.687Z,9.67
2018-09-15T16:59:26.807Z,9.20
2018-09-15T17:01:54.980Z,9.93
2018-09-15T17:04:23.156Z,8.30
2018-09-15T17:06:51.359Z,8.50
2018-09-15T17:09:19.539Z,8.47
2018-09-15T17:11:47.723Z,10.17
2018-09-15T17:14:15.950Z,9.30
2018-09-15T17:16:44.265Z,9.00
2018-09-15T17:19:12.445Z,8.77
2018-09-15T17:21:40.608Z,9.43
2018-09-15T17:24:09.187Z,10.40
2018-09-15T17:26:37.351Z,9.70
2018-09-15T17:29:05.624Z,10.80
2018-09-15T17:31:34.990Z,9.17
2018-09-15T17:34:03.195Z,10.60
2018-09-15T17:36:31.496Z,9.77
2018-09-15T17:38:59.714Z,9.37
2018-09-15T17:41:28.310Z,10.40
2018-09-15T17:43:57.527Z,9.57
2018-09-15T17:46:25.698Z,9.80
2018-09-15T17:48:53.880Z,9.20
2018-09-15T17:51:22.131Z,9.70
2018-09-15T17:53:50.360Z,8.93
2018-09-15T17:56:19.162Z,10.53
2018-09-15T17:58:48.359Z,10.03
2018-09-15T18:01:16.666Z,10.27
2018-09-15T18:03:44.859Z,10.63
2018-09-15T18:06:13.039Z,11.13
2018-09-15T18:08:41.229Z,11.30
2018-09-15T18:11:09.405Z,10.83
2018-09-15T18:13:37.585Z,11.17
2018-09-15T18:16:05.918Z,10.50
2018-09-15T18:18:34.112Z,12.40
2018-09-15T18:21:02.319Z,11.13
2018-09-15T18:23:31.478Z,10.63
2018-09-15T18:25:59.757Z,11.83
2018-09-15T18:28:27.936Z,11.47
2018-09-15T18:30:56.746Z,11.20
2018-09-15T18:33:25.056Z,10.83
2018-09-15T18:35:53.669Z,11.00
2018-09-15T18:38:22.864Z,10.90
2018-09-15T18:40:51.192Z,12.13
2018-09-15T18:43:19.447Z,11.50
2018-09-15T18:45:47.757Z,12.30
2018-09-15T18:48:15.985Z,12.10
2018-09-15T18:50:44.383Z,12.20
2018-09-15T18:53:12.496Z,12.87
2018-09-15T18:55:40.745Z,12.33
2018-09-15T18:58:08.999Z,12.50
2018-09-15T19:00:39.204Z,12.70
2018-09-15T19:03:08.534Z,13.23
2018-09-15T19:05:36.811Z,12.23
2018-09-15T19:08:05.484Z,12.80
2018-09-15T19:10:33.707Z,13.73
2018-09-15T19:13:01.923Z,13.23
2018-09-15T19:15:30.142Z,12.70
2018-09-15T19:17:58.343Z,13.37
2018-09-15T19:20:26.579Z,16.20
2018-09-15T19:22:54.759Z,16.10
2018-09-15T19:25:22.975Z,17.07
2018-09-15T19:27:51.246Z,15.93
2018-09-15T19:30:20.572Z,15.20
2018-09-15T19:32:49.410Z,13.50
2018-09-15T19:35:17.568Z,12.23
2018-09-15T19:37:46.559Z,12.40
2018-09-15T19:40:14.835Z,11.80
2018-09-15T19:42:43.093Z,12.03
2018-09-15T19:45:11.399Z,12.03
2018-09-15T19:47:39.584Z,11.87
2018-09-15T19:50:07.771Z,11.57
2018-09-15T19:52:36.714Z,11.70
2018-09-15T19:55:04.883Z,12.20
2018-09-15T19:57:33.067Z,12.33
2018-09-15T20:00:01.260Z,12.77
2018-09-15T20:02:29.449Z,13.20
2018-09-15T20:04:57.838Z,12.77
2018-09-15T20:07:26.487Z,12.03
2018-09-15T20:09:54.751Z,12.53
2018-09-15T20:12:23.467Z,12.57
2018-09-15T20:14:51.685Z,12.40
2018-09-15T20:17:18.822Z,12.93
2018-09-15T20:19:45.969Z,13.10
2018-09-15T20:22:14.531Z,13.23
2018-09-15T20:24:42.923Z,12.90
2018-09-15T20:27:11.084Z,12.97
2018-09-15T20:29:39.407Z,12.53
2018-09-15T20:32:07.619Z,13.30
2018-09-15T20:34:36.172Z,12.00
2018-09-15T20:37:04.355Z,12.20
2018-09-15T20:39:32.539Z,12.20
2018-09-15T20:42:00.719Z,12.90
2018-09-15T20:44:28.904Z,13.53
2018-09-15T20:46:57.095Z,12.90
2018-09-15T20:49:25.300Z,12.43
2018-09-15T20:51:53.483Z,14.77
2018-09-15T20:54:21.669Z,12.67
2018-09-15T20:56:49.889Z,12.60
2018-09-15T20:59:18.075Z,12.60
2018-09-15T21:01:46.263Z,13.87
2018-09-15T21:04:14.478Z,15.60
2018-09-15T21:06:42.671Z,18.00
2018-09-15T21:09:12.044Z,12.70
2018-09-15T21:11:40.316Z,13.13
2018-09-15T21:14:08.598Z,16.47
2018-09-15T21:16:36.775Z,12.90
2018-09-15T21:19:05.137Z,12.93
2018-09-15T21:21:33.395Z,13.07
2018-09-15T21:24:01.594Z,13.20
2018-09-15T21:26:29.777Z,12.63
2018-09-15T21:28:57.979Z,13.90
2018-09-15T21:31:26.166Z,12.63
2018-09-15T21:33:54.335Z,11.87
2018-09-15T21:36:22.535Z,12.23
2018-09-15T21:38:50.781Z,12.17
2018-09-15T21:41:18.904Z,13.00
2018-09-15T21:43:47.079Z,12.20
2018-09-15T21:46:15.354Z,13.33
2018-09-15T21:48:43.427Z,12.67
2018-09-15T21:51:11.627Z,13.87
2018-09-15T21:53:39.850Z,12.80
2018-09-15T21:56:07.983Z,12.70
2018-09-15T21:58:36.177Z,13.47
2018-09-15T22:01:04.938Z,13.60
2018-09-15T22:03:38.467Z,13.43
2018-09-15T22:06:06.879Z,14.50
2018-09-15T22:08:35.065Z,13.90
2018-09-15T22:11:03.371Z,13.43
2018-09-15T22:13:31.568Z,13.63
2018-09-15T22:15:59.766Z,13.90
2018-09-15T22:18:27.932Z,13.60
2018-09-15T22:20:56.109Z,13.00
2018-09-15T22:23:24.303Z,13.90
2018-09-15T22:25:52.466Z,13.47
2018-09-15T22:28:20.666Z,14.00
2018-09-15T22:30:48.890Z,15.43
2018-09-15T22:33:17.098Z,13.60
2018-09-15T22:35:45.276Z,13.07
2018-09-15T22:38:13.465Z,14.10
2018-09-15T22:40:41.647Z,13.70
2018-09-15T22:43:09.943Z,13.30
2018-09-15T22:45:38.120Z,14.03
2018-09-15T22:48:06.310Z,14.40
2018-09-15T22:50:34.495Z,13.80
2018-09-15T22:53:02.695Z,14.10
2018-09-15T22:55:30.883Z,14.70
2018-09-15T22:57:59.066Z,14.03
2018-09-15T23:00:27.262Z,14.60
2018-09-15T23:02:55.443Z,13.57
2018-09-15T23:05:23.631Z,13.63
2018-09-15T23:07:53.721Z,12.70
2018-09-15T23:10:21.992Z,13.73
2018-09-15T23:12:50.175Z,13.13
2018-09-15T23:15:18.396Z,13.40
2018-09-15T23:17:46.571Z,12.77
2018-09-15T23:20:14.747Z,12.77
2018-09-15T23:22:42.934Z,13.93
2018-09-15T23:25:11.116Z,14.17
2018-09-15T23:27:39.721Z,15.30
2018-09-15T23:30:07.902Z,14.50
2018-09-15T23:32:36.107Z,15.60
2018-09-15T23:35:04.417Z,14.60
2018-09-15T23:37:32.602Z,15.57
2018-09-15T23:40:00.787Z,15.90
2018-09-15T23:42:28.984Z,14.87
2018-09-15T23:44:57.158Z,14.87
2018-09-15T23:47:25.334Z,14.40
2018-09-15T23:49:53.521Z,14.10
2018-09-15T23:52:21.692Z,15.33
2018-09-15T23:54:49.896Z,15.30
2018-09-15T23:57:18.056Z,14.37
2018-09-15T23:59:46.274Z,15.07
